Terminal Aerodrome Forecast
Issued by NWS

Home | Current Version | Previous Version | Text Only | Print | Product List | Glossary On
Versions: 1 2 3 4 5 6 7 8 9 10 11 12
000
FTUS41 KCAR 130500
TAFHUL
TAF
KHUL 130531Z 1306/1406 21005KT P6SM SCT250
     FM131800 18007KT P6SM BKN120 OVC200
     FM140100 18009KT P6SM OVC025
     FM140300 18007KT P6SM -SHRA OVC010
     FM140400 18006KT 5SM -SHRA BR OVC008=

USA.gov is the U.S. government's official web portal to all federal, state and local government web resources and services.